createdAt,value
2022-10-17T00:32:49.423Z,80.5
2022-10-17T01:03:52.420Z,80.5
2022-10-17T01:19:30.526Z,80
2022-10-17T01:58:12.758Z,79.5
2022-10-17T02:13:50.892Z,79.5
2022-10-17T02:52:46.349Z,79
2022-10-17T03:15:57.090Z,80.5
2022-10-17T03:39:21.129Z,81
2022-10-17T04:18:03.458Z,81
2022-10-17T04:49:00.108Z,81
2022-10-17T04:56:59.102Z,79.5
2022-10-17T05:27:55.760Z,81.5
2022-10-17T05:51:06.798Z,81.5
2022-10-17T06:14:37.391Z,81
2022-10-17T07:00:58.906Z,75.5
2022-10-17T07:16:30.440Z,74.5
2022-10-17T07:47:46.538Z,72
2022-10-17T08:18:36.000Z,68
2022-10-17T08:49:45.135Z,69.5
2022-10-17T09:28:33.178Z,67
2022-10-17T09:51:50.109Z,65
2022-10-17T10:22:45.623Z,62
2022-10-17T10:46:15.607Z,60.5
2022-10-17T11:17:11.131Z,58.5
2022-10-17T11:32:42.175Z,56.5
2022-10-17T12:03:50.737Z,51.5
2022-10-17T12:34:52.541Z,47.5
2022-10-17T12:50:23.114Z,46
2022-10-17T13:28:56.271Z,34
2022-10-17T14:15:32.900Z,23
2022-10-17T14:46:39.259Z,26.5
2022-10-17T15:09:40.648Z,20.5
2022-10-17T15:25:10.415Z,19
2022-10-17T16:03:56.005Z,34.5
2022-10-17T16:19:39.890Z,43
2022-10-17T16:42:56.183Z,53.5
2022-10-17T17:13:51.628Z,59
2022-10-17T17:37:14.851Z,62
2022-10-17T17:52:39.448Z,64.5
2022-10-17T18:15:56.133Z,65.5
2022-10-17T18:47:05.194Z,68
2022-10-17T19:10:15.373Z,69.5
2022-10-17T19:25:53.235Z,71
2022-10-17T19:56:55.728Z,71
2022-10-17T20:35:43.819Z,69
2022-10-17T20:51:15.003Z,70
2022-10-17T21:14:25.194Z,70.5
2022-10-17T21:53:06.590Z,72
2022-10-17T22:08:51.013Z,72.5
2022-10-17T22:32:07.825Z,72.5
2022-10-17T23:03:10.248Z,72
2022-10-17T23:26:27.022Z,72
2022-10-17T23:49:37.297Z,72
